sensor_id;sensor_type;location;lat;lon;timestamp;P1;durP1;ratioP1;P2;durP2;ratioP2
5349;SDS011;2697;42.144;24.794;2023-12-29T00:01:46;50.17;;;22.80;;
5349;SDS011;2697;42.144;24.794;2023-12-29T00:04:11;56.47;;;21.13;;
5349;SDS011;2697;42.144;24.794;2023-12-29T00:06:39;53.70;;;19.93;;
5349;SDS011;2697;42.144;24.794;2023-12-29T00:09:05;45.80;;;19.70;;
5349;SDS011;2697;42.144;24.794;2023-12-29T00:11:32;51.27;;;19.70;;
5349;SDS011;2697;42.144;24.794;2023-12-29T00:13:57;46.77;;;21.10;;
5349;SDS011;2697;42.144;24.794;2023-12-29T00:16:23;39.07;;;18.63;;
5349;SDS011;2697;42.144;24.794;2023-12-29T00:18:48;49.00;;;17.97;;
5349;SDS011;2697;42.144;24.794;2023-12-29T00:21:13;52.30;;;20.13;;
5349;SDS011;2697;42.144;24.794;2023-12-29T00:23:39;55.00;;;20.47;;
5349;SDS011;2697;42.144;24.794;2023-12-29T00:26:04;58.83;;;20.47;;
5349;SDS011;2697;42.144;24.794;2023-12-29T00:28:30;54.80;;;19.50;;
5349;SDS011;2697;42.144;24.794;2023-12-29T00:30:55;45.97;;;18.70;;
5349;SDS011;2697;42.144;24.794;2023-12-29T00:33:21;36.73;;;18.10;;
5349;SDS011;2697;42.144;24.794;2023-12-29T00:35:46;54.50;;;19.73;;
5349;SDS011;2697;42.144;24.794;2023-12-29T00:38:12;44.33;;;18.80;;
5349;SDS011;2697;42.144;24.794;2023-12-29T00:40:37;42.00;;;19.40;;
5349;SDS011;2697;42.144;24.794;2023-12-29T00:43:02;40.57;;;19.40;;
5349;SDS011;2697;42.144;24.794;2023-12-29T00:45:28;38.10;;;17.63;;
5349;SDS011;2697;42.144;24.794;2023-12-29T00:47:57;50.50;;;20.50;;
5349;SDS011;2697;42.144;24.794;2023-12-29T00:50:23;45.07;;;19.17;;
5349;SDS011;2697;42.144;24.794;2023-12-29T00:52:49;39.67;;;19.40;;
5349;SDS011;2697;42.144;24.794;2023-12-29T00:55:14;49.30;;;18.80;;
5349;SDS011;2697;42.144;24.794;2023-12-29T00:57:40;43.47;;;19.30;;
5349;SDS011;2697;42.144;24.794;2023-12-29T01:00:05;46.10;;;17.13;;
5349;SDS011;2697;42.144;24.794;2023-12-29T01:02:33;38.60;;;20.13;;
5349;SDS011;2697;42.144;24.794;2023-12-29T01:04:58;42.00;;;17.27;;
5349;SDS011;2697;42.144;24.794;2023-12-29T01:07:24;42.10;;;18.10;;
5349;SDS011;2697;42.144;24.794;2023-12-29T01:09:49;50.00;;;18.37;;
5349;SDS011;2697;42.144;24.794;2023-12-29T01:12:14;36.60;;;17.03;;
5349;SDS011;2697;42.144;24.794;2023-12-29T01:14:40;50.10;;;20.40;;
5349;SDS011;2697;42.144;24.794;2023-12-29T01:17:05;43.10;;;19.37;;
5349;SDS011;2697;42.144;24.794;2023-12-29T01:19:31;48.47;;;20.20;;
5349;SDS011;2697;42.144;24.794;2023-12-29T01:21:56;54.13;;;22.13;;
5349;SDS011;2697;42.144;24.794;2023-12-29T01:24:21;53.57;;;22.43;;
5349;SDS011;2697;42.144;24.794;2023-12-29T01:26:47;48.60;;;22.10;;
5349;SDS011;2697;42.144;24.794;2023-12-29T01:29:12;52.43;;;20.90;;
5349;SDS011;2697;42.144;24.794;2023-12-29T01:31:38;57.87;;;21.00;;
5349;SDS011;2697;42.144;24.794;2023-12-29T01:34:04;52.90;;;21.80;;
5349;SDS011;2697;42.144;24.794;2023-12-29T01:36:30;49.30;;;21.60;;
5349;SDS011;2697;42.144;24.794;2023-12-29T01:38:55;54.10;;;20.87;;
5349;SDS011;2697;42.144;24.794;2023-12-29T01:41:21;50.37;;;18.33;;
5349;SDS011;2697;42.144;24.794;2023-12-29T01:46:30;73.57;;;21.17;;
5349;SDS011;2697;42.144;24.794;2023-12-29T01:48:58;56.77;;;21.23;;
5349;SDS011;2697;42.144;24.794;2023-12-29T01:51:24;52.13;;;22.63;;
5349;SDS011;2697;42.144;24.794;2023-12-29T01:53:52;48.10;;;19.53;;
5349;SDS011;2697;42.144;24.794;2023-12-29T01:56:19;53.10;;;22.90;;
5349;SDS011;2697;42.144;24.794;2023-12-29T01:58:45;53.80;;;24.20;;
5349;SDS011;2697;42.144;24.794;2023-12-29T02:01:13;51.57;;;22.00;;
5349;SDS011;2697;42.144;24.794;2023-12-29T02:03:40;57.57;;;25.70;;
5349;SDS011;2697;42.144;24.794;2023-12-29T02:06:06;59.53;;;23.60;;
5349;SDS011;2697;42.144;24.794;2023-12-29T02:08:32;47.37;;;20.00;;
5349;SDS011;2697;42.144;24.794;2023-12-29T02:10:57;50.97;;;22.33;;
5349;SDS011;2697;42.144;24.794;2023-12-29T02:13:23;58.23;;;20.33;;
5349;SDS011;2697;42.144;24.794;2023-12-29T02:15:52;63.80;;;24.00;;
5349;SDS011;2697;42.144;24.794;2023-12-29T02:18:23;59.90;;;23.90;;
5349;SDS011;2697;42.144;24.794;2023-12-29T02:20:50;46.63;;;21.37;;
5349;SDS011;2697;42.144;24.794;2023-12-29T02:23:15;40.37;;;19.20;;
5349;SDS011;2697;42.144;24.794;2023-12-29T02:25:41;65.10;;;22.47;;
5349;SDS011;2697;42.144;24.794;2023-12-29T02:33:37;54.63;;;21.40;;
5349;SDS011;2697;42.144;24.794;2023-12-29T02:36:05;51.00;;;21.70;;
5349;SDS011;2697;42.144;24.794;2023-12-29T02:38:31;53.43;;;20.50;;
5349;SDS011;2697;42.144;24.794;2023-12-29T02:40:58;53.03;;;21.23;;
5349;SDS011;2697;42.144;24.794;2023-12-29T02:43:24;50.20;;;24.17;;
5349;SDS011;2697;42.144;24.794;2023-12-29T02:45:49;46.30;;;19.90;;
5349;SDS011;2697;42.144;24.794;2023-12-29T02:48:15;41.47;;;18.83;;
5349;SDS011;2697;42.144;24.794;2023-12-29T02:50:40;56.00;;;20.53;;
5349;SDS011;2697;42.144;24.794;2023-12-29T02:53:06;38.37;;;21.40;;
5349;SDS011;2697;42.144;24.794;2023-12-29T02:55:31;57.80;;;22.80;;
5349;SDS011;2697;42.144;24.794;2023-12-29T02:57:57;37.13;;;18.43;;
5349;SDS011;2697;42.144;24.794;2023-12-29T03:00:22;54.00;;;21.00;;
5349;SDS011;2697;42.144;24.794;2023-12-29T03:02:48;43.63;;;20.77;;
5349;SDS011;2697;42.144;24.794;2023-12-29T03:05:13;49.57;;;19.83;;
5349;SDS011;2697;42.144;24.794;2023-12-29T03:07:39;45.70;;;17.67;;
5349;SDS011;2697;42.144;24.794;2023-12-29T03:10:05;50.30;;;21.67;;
5349;SDS011;2697;42.144;24.794;2023-12-29T03:12:32;35.63;;;17.17;;
5349;SDS011;2697;42.144;24.794;2023-12-29T03:14:57;40.83;;;16.37;;
5349;SDS011;2697;42.144;24.794;2023-12-29T03:17:23;42.93;;;17.53;;
5349;SDS011;2697;42.144;24.794;2023-12-29T03:19:48;43.93;;;19.00;;
5349;SDS011;2697;42.144;24.794;2023-12-29T03:22:14;40.83;;;16.87;;
5349;SDS011;2697;42.144;24.794;2023-12-29T03:24:42;43.00;;;16.53;;
5349;SDS011;2697;42.144;24.794;2023-12-29T03:27:08;32.30;;;16.27;;
5349;SDS011;2697;42.144;24.794;2023-12-29T03:29:33;39.13;;;17.40;;
5349;SDS011;2697;42.144;24.794;2023-12-29T03:31:59;35.00;;;16.67;;
5349;SDS011;2697;42.144;24.794;2023-12-29T03:34:24;27.50;;;15.27;;
5349;SDS011;2697;42.144;24.794;2023-12-29T03:36:50;39.03;;;16.53;;
5349;SDS011;2697;42.144;24.794;2023-12-29T03:39:15;38.73;;;16.37;;
5349;SDS011;2697;42.144;24.794;2023-12-29T03:41:40;36.53;;;16.37;;
5349;SDS011;2697;42.144;24.794;2023-12-29T03:44:06;45.03;;;19.10;;
5349;SDS011;2697;42.144;24.794;2023-12-29T03:46:31;43.20;;;17.07;;
5349;SDS011;2697;42.144;24.794;2023-12-29T03:48:57;37.93;;;16.80;;
5349;SDS011;2697;42.144;24.794;2023-12-29T03:51:23;43.97;;;19.50;;
5349;SDS011;2697;42.144;24.794;2023-12-29T03:53:49;40.90;;;18.47;;
5349;SDS011;2697;42.144;24.794;2023-12-29T03:56:15;57.93;;;22.13;;
5349;SDS011;2697;42.144;24.794;2023-12-29T03:58:41;39.50;;;19.57;;
5349;SDS011;2697;42.144;24.794;2023-12-29T04:01:11;41.93;;;18.90;;
5349;SDS011;2697;42.144;24.794;2023-12-29T04:03:39;47.50;;;21.17;;
5349;SDS011;2697;42.144;24.794;2023-12-29T04:06:06;61.97;;;22.57;;
5349;SDS011;2697;42.144;24.794;2023-12-29T04:08:32;54.20;;;22.33;;
5349;SDS011;2697;42.144;24.794;2023-12-29T04:10:58;61.63;;;24.30;;
5349;SDS011;2697;42.144;24.794;2023-12-29T04:13:23;54.63;;;20.60;;
5349;SDS011;2697;42.144;24.794;2023-12-29T04:15:49;59.30;;;24.27;;
5349;SDS011;2697;42.144;24.794;2023-12-29T04:18:14;55.43;;;23.53;;
5349;SDS011;2697;42.144;24.794;2023-12-29T04:20:40;53.87;;;23.83;;
5349;SDS011;2697;42.144;24.794;2023-12-29T04:23:05;47.97;;;21.77;;
5349;SDS011;2697;42.144;24.794;2023-12-29T04:25:32;68.23;;;25.33;;
5349;SDS011;2697;42.144;24.794;2023-12-29T04:27:58;50.57;;;24.67;;
5349;SDS011;2697;42.144;24.794;2023-12-29T04:30:24;60.23;;;25.40;;
5349;SDS011;2697;42.144;24.794;2023-12-29T04:32:49;44.70;;;20.17;;
5349;SDS011;2697;42.144;24.794;2023-12-29T04:35:15;56.07;;;23.00;;
5349;SDS011;2697;42.144;24.794;2023-12-29T04:37:44;51.83;;;24.00;;
5349;SDS011;2697;42.144;24.794;2023-12-29T04:40:12;51.40;;;24.33;;
5349;SDS011;2697;42.144;24.794;2023-12-29T04:42:38;38.70;;;18.13;;
5349;SDS011;2697;42.144;24.794;2023-12-29T04:45:04;49.20;;;17.83;;
5349;SDS011;2697;42.144;24.794;2023-12-29T04:47:30;42.13;;;19.67;;
5349;SDS011;2697;42.144;24.794;2023-12-29T04:49:55;46.83;;;19.00;;
5349;SDS011;2697;42.144;24.794;2023-12-29T04:52:21;40.27;;;18.87;;
5349;SDS011;2697;42.144;24.794;2023-12-29T04:54:46;47.13;;;19.57;;
5349;SDS011;2697;42.144;24.794;2023-12-29T04:57:12;48.90;;;18.57;;
5349;SDS011;2697;42.144;24.794;2023-12-29T04:59:37;47.23;;;18.80;;
5349;SDS011;2697;42.144;24.794;2023-12-29T05:02:03;44.47;;;20.33;;
5349;SDS011;2697;42.144;24.794;2023-12-29T05:04:28;46.97;;;19.30;;
5349;SDS011;2697;42.144;24.794;2023-12-29T05:06:53;55.97;;;19.73;;
5349;SDS011;2697;42.144;24.794;2023-12-29T05:09:19;47.87;;;19.67;;
5349;SDS011;2697;42.144;24.794;2023-12-29T05:11:44;48.67;;;20.97;;
5349;SDS011;2697;42.144;24.794;2023-12-29T05:14:11;66.13;;;24.33;;
5349;SDS011;2697;42.144;24.794;2023-12-29T05:16:36;61.73;;;25.10;;
5349;SDS011;2697;42.144;24.794;2023-12-29T05:19:01;57.17;;;23.67;;
5349;SDS011;2697;42.144;24.794;2023-12-29T05:21:27;62.67;;;23.97;;
5349;SDS011;2697;42.144;24.794;2023-12-29T05:23:52;53.67;;;21.80;;
5349;SDS011;2697;42.144;24.794;2023-12-29T05:26:18;54.23;;;23.17;;
5349;SDS011;2697;42.144;24.794;2023-12-29T05:28:43;51.03;;;23.50;;
5349;SDS011;2697;42.144;24.794;2023-12-29T05:31:09;52.30;;;21.83;;
5349;SDS011;2697;42.144;24.794;2023-12-29T05:33:35;66.73;;;24.30;;
5349;SDS011;2697;42.144;24.794;2023-12-29T05:36:07;68.23;;;21.10;;
5349;SDS011;2697;42.144;24.794;2023-12-29T05:38:34;46.87;;;19.97;;
5349;SDS011;2697;42.144;24.794;2023-12-29T05:41:00;49.33;;;21.23;;
5349;SDS011;2697;42.144;24.794;2023-12-29T05:43:29;44.40;;;21.47;;
5349;SDS011;2697;42.144;24.794;2023-12-29T05:45:59;57.87;;;22.47;;
5349;SDS011;2697;42.144;24.794;2023-12-29T05:48:25;55.00;;;18.10;;
5349;SDS011;2697;42.144;24.794;2023-12-29T05:50:51;55.37;;;21.90;;
5349;SDS011;2697;42.144;24.794;2023-12-29T05:53:17;32.10;;;15.80;;
5349;SDS011;2697;42.144;24.794;2023-12-29T05:55:45;42.17;;;19.03;;
5349;SDS011;2697;42.144;24.794;2023-12-29T05:58:11;45.83;;;21.90;;
5349;SDS011;2697;42.144;24.794;2023-12-29T06:00:37;49.97;;;22.53;;
5349;SDS011;2697;42.144;24.794;2023-12-29T06:03:03;58.03;;;22.97;;
5349;SDS011;2697;42.144;24.794;2023-12-29T06:05:29;68.23;;;25.00;;
5349;SDS011;2697;42.144;24.794;2023-12-29T06:07:55;58.73;;;24.60;;
5349;SDS011;2697;42.144;24.794;2023-12-29T06:10:20;64.97;;;27.33;;
5349;SDS011;2697;42.144;24.794;2023-12-29T06:12:46;87.57;;;32.57;;
5349;SDS011;2697;42.144;24.794;2023-12-29T06:15:12;60.70;;;28.47;;
5349;SDS011;2697;42.144;24.794;2023-12-29T06:17:38;65.73;;;27.80;;
5349;SDS011;2697;42.144;24.794;2023-12-29T06:20:05;67.87;;;27.57;;
5349;SDS011;2697;42.144;24.794;2023-12-29T06:22:32;73.93;;;28.60;;
5349;SDS011;2697;42.144;24.794;2023-12-29T06:24:57;57.90;;;27.60;;
5349;SDS011;2697;42.144;24.794;2023-12-29T06:27:23;59.40;;;26.87;;
5349;SDS011;2697;42.144;24.794;2023-12-29T06:29:48;63.33;;;27.67;;
5349;SDS011;2697;42.144;24.794;2023-12-29T06:32:13;93.53;;;28.53;;
5349;SDS011;2697;42.144;24.794;2023-12-29T06:34:40;65.73;;;27.33;;
5349;SDS011;2697;42.144;24.794;2023-12-29T06:37:05;59.80;;;27.70;;
5349;SDS011;2697;42.144;24.794;2023-12-29T06:39:31;69.90;;;27.20;;
5349;SDS011;2697;42.144;24.794;2023-12-29T06:41:56;66.40;;;27.67;;
5349;SDS011;2697;42.144;24.794;2023-12-29T06:44:21;57.33;;;25.97;;
5349;SDS011;2697;42.144;24.794;2023-12-29T06:46:47;60.27;;;28.30;;
5349;SDS011;2697;42.144;24.794;2023-12-29T06:49:12;59.07;;;27.40;;
5349;SDS011;2697;42.144;24.794;2023-12-29T06:51:38;62.33;;;27.97;;
5349;SDS011;2697;42.144;24.794;2023-12-29T06:54:06;70.23;;;27.40;;
5349;SDS011;2697;42.144;24.794;2023-12-29T06:56:32;62.53;;;27.60;;
5349;SDS011;2697;42.144;24.794;2023-12-29T06:58:57;63.17;;;27.20;;
5349;SDS011;2697;42.144;24.794;2023-12-29T07:01:22;59.70;;;25.00;;
5349;SDS011;2697;42.144;24.794;2023-12-29T07:03:48;65.67;;;27.53;;
5349;SDS011;2697;42.144;24.794;2023-12-29T07:06:13;57.90;;;27.00;;
5349;SDS011;2697;42.144;24.794;2023-12-29T07:08:39;58.33;;;26.00;;
5349;SDS011;2697;42.144;24.794;2023-12-29T07:11:08;55.30;;;26.30;;
5349;SDS011;2697;42.144;24.794;2023-12-29T07:13:35;52.83;;;24.60;;
5349;SDS011;2697;42.144;24.794;2023-12-29T07:16:01;56.73;;;24.43;;
5349;SDS011;2697;42.144;24.794;2023-12-29T07:18:27;69.83;;;26.40;;
5349;SDS011;2697;42.144;24.794;2023-12-29T07:20:52;62.83;;;27.40;;
5349;SDS011;2697;42.144;24.794;2023-12-29T07:23:17;79.27;;;32.50;;
5349;SDS011;2697;42.144;24.794;2023-12-29T07:25:43;88.77;;;34.13;;
5349;SDS011;2697;42.144;24.794;2023-12-29T07:28:08;70.63;;;32.70;;
5349;SDS011;2697;42.144;24.794;2023-12-29T07:30:33;71.83;;;32.83;;
5349;SDS011;2697;42.144;24.794;2023-12-29T07:32:59;94.20;;;38.43;;
5349;SDS011;2697;42.144;24.794;2023-12-29T07:35:24;72.27;;;33.97;;
5349;SDS011;2697;42.144;24.794;2023-12-29T07:37:50;97.33;;;37.83;;
5349;SDS011;2697;42.144;24.794;2023-12-29T07:40:15;127.53;;;40.53;;
5349;SDS011;2697;42.144;24.794;2023-12-29T07:42:41;120.33;;;43.23;;
5349;SDS011;2697;42.144;24.794;2023-12-29T07:45:08;134.47;;;51.47;;
5349;SDS011;2697;42.144;24.794;2023-12-29T07:47:34;139.33;;;57.63;;
5349;SDS011;2697;42.144;24.794;2023-12-29T07:49:59;130.77;;;58.47;;
5349;SDS011;2697;42.144;24.794;2023-12-29T07:52:25;118.00;;;51.03;;
5349;SDS011;2697;42.144;24.794;2023-12-29T07:54:50;123.53;;;49.00;;
5349;SDS011;2697;42.144;24.794;2023-12-29T07:57:15;91.03;;;41.63;;
5349;SDS011;2697;42.144;24.794;2023-12-29T07:59:41;102.83;;;44.47;;
5349;SDS011;2697;42.144;24.794;2023-12-29T08:02:06;104.57;;;42.63;;
5349;SDS011;2697;42.144;24.794;2023-12-29T08:04:32;86.03;;;38.20;;
5349;SDS011;2697;42.144;24.794;2023-12-29T08:06:57;88.53;;;39.30;;
5349;SDS011;2697;42.144;24.794;2023-12-29T08:09:22;89.47;;;39.60;;
5349;SDS011;2697;42.144;24.794;2023-12-29T08:11:48;97.80;;;37.27;;
5349;SDS011;2697;42.144;24.794;2023-12-29T08:14:14;80.40;;;36.20;;
5349;SDS011;2697;42.144;24.794;2023-12-29T08:16:40;84.17;;;38.57;;
5349;SDS011;2697;42.144;24.794;2023-12-29T08:19:06;83.23;;;40.30;;
5349;SDS011;2697;42.144;24.794;2023-12-29T08:21:34;75.27;;;35.83;;
5349;SDS011;2697;42.144;24.794;2023-12-29T08:24:00;79.10;;;34.90;;
5349;SDS011;2697;42.144;24.794;2023-12-29T08:26:26;74.57;;;32.50;;
5349;SDS011;2697;42.144;24.794;2023-12-29T08:28:51;74.33;;;28.40;;
5349;SDS011;2697;42.144;24.794;2023-12-29T08:31:18;88.00;;;30.40;;
5349;SDS011;2697;42.144;24.794;2023-12-29T08:33:44;69.37;;;25.70;;
5349;SDS011;2697;42.144;24.794;2023-12-29T08:36:10;65.03;;;26.17;;
5349;SDS011;2697;42.144;24.794;2023-12-29T08:38:37;58.63;;;25.10;;
5349;SDS011;2697;42.144;24.794;2023-12-29T08:41:02;48.60;;;23.37;;
5349;SDS011;2697;42.144;24.794;2023-12-29T08:43:28;59.27;;;23.13;;
5349;SDS011;2697;42.144;24.794;2023-12-29T08:45:53;56.20;;;19.77;;
5349;SDS011;2697;42.144;24.794;2023-12-29T08:48:19;62.30;;;21.83;;
5349;SDS011;2697;42.144;24.794;2023-12-29T08:50:46;80.03;;;30.93;;
5349;SDS011;2697;42.144;24.794;2023-12-29T08:53:11;79.53;;;40.10;;
5349;SDS011;2697;42.144;24.794;2023-12-29T08:55:36;99.13;;;35.17;;
5349;SDS011;2697;42.144;24.794;2023-12-29T08:58:02;70.30;;;34.77;;
5349;SDS011;2697;42.144;24.794;2023-12-29T09:00:27;83.57;;;32.80;;
5349;SDS011;2697;42.144;24.794;2023-12-29T09:02:55;66.73;;;27.27;;
5349;SDS011;2697;42.144;24.794;2023-12-29T09:05:21;84.30;;;30.43;;
5349;SDS011;2697;42.144;24.794;2023-12-29T09:07:46;56.43;;;24.37;;
5349;SDS011;2697;42.144;24.794;2023-12-29T09:10:12;61.30;;;25.80;;
5349;SDS011;2697;42.144;24.794;2023-12-29T09:12:38;52.20;;;22.80;;
5349;SDS011;2697;42.144;24.794;2023-12-29T09:15:04;60.10;;;22.70;;
5349;SDS011;2697;42.144;24.794;2023-12-29T09:17:31;45.97;;;21.03;;
5349;SDS011;2697;42.144;24.794;2023-12-29T09:19:56;48.47;;;19.40;;
5349;SDS011;2697;42.144;24.794;2023-12-29T09:22:22;46.50;;;20.10;;
5349;SDS011;2697;42.144;24.794;2023-12-29T09:24:47;50.10;;;20.37;;
5349;SDS011;2697;42.144;24.794;2023-12-29T09:27:12;43.03;;;17.80;;
5349;SDS011;2697;42.144;24.794;2023-12-29T09:29:38;34.70;;;15.77;;
5349;SDS011;2697;42.144;24.794;2023-12-29T09:32:05;50.83;;;24.10;;
5349;SDS011;2697;42.144;24.794;2023-12-29T09:34:30;55.63;;;21.17;;
5349;SDS011;2697;42.144;24.794;2023-12-29T09:36:56;52.67;;;22.97;;
5349;SDS011;2697;42.144;24.794;2023-12-29T09:39:21;58.83;;;25.17;;
5349;SDS011;2697;42.144;24.794;2023-12-29T09:41:46;51.57;;;24.93;;
5349;SDS011;2697;42.144;24.794;2023-12-29T09:44:16;50.77;;;23.63;;
5349;SDS011;2697;42.144;24.794;2023-12-29T09:46:45;66.37;;;24.60;;
5349;SDS011;2697;42.144;24.794;2023-12-29T09:49:14;65.13;;;25.33;;
5349;SDS011;2697;42.144;24.794;2023-12-29T09:51:43;65.37;;;25.00;;
5349;SDS011;2697;42.144;24.794;2023-12-29T09:54:09;52.10;;;22.93;;
5349;SDS011;2697;42.144;24.794;2023-12-29T09:56:36;40.10;;;17.80;;
5349;SDS011;2697;42.144;24.794;2023-12-29T09:59:02;41.37;;;18.37;;
5349;SDS011;2697;42.144;24.794;2023-12-29T10:01:29;47.83;;;19.03;;
5349;SDS011;2697;42.144;24.794;2023-12-29T10:03:56;66.67;;;21.43;;
5349;SDS011;2697;42.144;24.794;2023-12-29T10:06:25;43.53;;;19.17;;
5349;SDS011;2697;42.144;24.794;2023-12-29T10:08:51;63.10;;;20.40;;
5349;SDS011;2697;42.144;24.794;2023-12-29T10:11:18;63.30;;;21.60;;
5349;SDS011;2697;42.144;24.794;2023-12-29T10:13:46;42.03;;;17.93;;
5349;SDS011;2697;42.144;24.794;2023-12-29T10:24:57;38.07;;;18.07;;
5349;SDS011;2697;42.144;24.794;2023-12-29T10:27:22;38.60;;;16.73;;
5349;SDS011;2697;42.144;24.794;2023-12-29T10:29:48;58.33;;;18.40;;
5349;SDS011;2697;42.144;24.794;2023-12-29T10:32:13;40.97;;;15.53;;
5349;SDS011;2697;42.144;24.794;2023-12-29T10:34:39;42.60;;;14.10;;
5349;SDS011;2697;42.144;24.794;2023-12-29T10:37:04;29.03;;;14.70;;
5349;SDS011;2697;42.144;24.794;2023-12-29T10:39:36;35.17;;;14.20;;
5349;SDS011;2697;42.144;24.794;2023-12-29T10:42:06;26.37;;;12.97;;
5349;SDS011;2697;42.144;24.794;2023-12-29T10:44:36;22.90;;;12.83;;
5349;SDS011;2697;42.144;24.794;2023-12-29T10:47:08;28.70;;;14.37;;
5349;SDS011;2697;42.144;24.794;2023-12-29T10:49:35;24.63;;;12.50;;
5349;SDS011;2697;42.144;24.794;2023-12-29T10:52:03;28.97;;;13.20;;
5349;SDS011;2697;42.144;24.794;2023-12-29T10:54:36;26.53;;;11.97;;
5349;SDS011;2697;42.144;24.794;2023-12-29T10:57:02;27.17;;;12.50;;
5349;SDS011;2697;42.144;24.794;2023-12-29T10:59:28;27.40;;;12.00;;
5349;SDS011;2697;42.144;24.794;2023-12-29T11:01:53;26.33;;;11.60;;
5349;SDS011;2697;42.144;24.794;2023-12-29T11:04:21;28.80;;;13.10;;
5349;SDS011;2697;42.144;24.794;2023-12-29T11:06:48;26.33;;;13.27;;
5349;SDS011;2697;42.144;24.794;2023-12-29T11:09:32;40.90;;;12.70;;
5349;SDS011;2697;42.144;24.794;2023-12-29T11:12:00;32.97;;;12.43;;
5349;SDS011;2697;42.144;24.794;2023-12-29T11:14:27;37.57;;;11.40;;
5349;SDS011;2697;42.144;24.794;2023-12-29T11:16:54;26.10;;;13.73;;
5349;SDS011;2697;42.144;24.794;2023-12-29T11:19:20;26.53;;;12.17;;
5349;SDS011;2697;42.144;24.794;2023-12-29T11:21:46;33.17;;;13.20;;
5349;SDS011;2697;42.144;24.794;2023-12-29T11:24:14;26.70;;;13.27;;
5349;SDS011;2697;42.144;24.794;2023-12-29T11:26:39;28.77;;;12.67;;
5349;SDS011;2697;42.144;24.794;2023-12-29T11:29:07;28.70;;;13.03;;
5349;SDS011;2697;42.144;24.794;2023-12-29T11:31:33;31.70;;;13.03;;
5349;SDS011;2697;42.144;24.794;2023-12-29T11:34:04;29.03;;;13.47;;
5349;SDS011;2697;42.144;24.794;2023-12-29T11:36:35;28.70;;;13.30;;
5349;SDS011;2697;42.144;24.794;2023-12-29T11:42:05;41.23;;;14.20;;
5349;SDS011;2697;42.144;24.794;2023-12-29T11:44:37;32.97;;;13.10;;
5349;SDS011;2697;42.144;24.794;2023-12-29T11:47:03;32.93;;;12.20;;
5349;SDS011;2697;42.144;24.794;2023-12-29T11:49:47;45.37;;;14.80;;
5349;SDS011;2697;42.144;24.794;2023-12-29T11:52:36;40.80;;;15.60;;
5349;SDS011;2697;42.144;24.794;2023-12-29T11:55:14;38.03;;;13.90;;
5349;SDS011;2697;42.144;24.794;2023-12-29T11:57:40;31.97;;;13.53;;
5349;SDS011;2697;42.144;24.794;2023-12-29T12:00:06;33.50;;;13.80;;
5349;SDS011;2697;42.144;24.794;2023-12-29T12:02:33;37.00;;;14.43;;
5349;SDS011;2697;42.144;24.794;2023-12-29T12:04:59;26.87;;;14.07;;
5349;SDS011;2697;42.144;24.794;2023-12-29T12:09:49;24.53;;;12.40;;
5349;SDS011;2697;42.144;24.794;2023-12-29T12:18:01;42.33;;;14.90;;
5349;SDS011;2697;42.144;24.794;2023-12-29T12:20:34;26.43;;;14.77;;
5349;SDS011;2697;42.144;24.794;2023-12-29T12:23:01;29.67;;;15.30;;
5349;SDS011;2697;42.144;24.794;2023-12-29T12:25:31;29.73;;;15.30;;
5349;SDS011;2697;42.144;24.794;2023-12-29T12:28:05;30.47;;;15.03;;
5349;SDS011;2697;42.144;24.794;2023-12-29T12:30:32;31.03;;;12.83;;
5349;SDS011;2697;42.144;24.794;2023-12-29T12:33:02;27.83;;;14.03;;
5349;SDS011;2697;42.144;24.794;2023-12-29T12:35:29;25.47;;;12.33;;
5349;SDS011;2697;42.144;24.794;2023-12-29T12:38:13;29.50;;;11.70;;
5349;SDS011;2697;42.144;24.794;2023-12-29T12:40:45;28.60;;;12.00;;
5349;SDS011;2697;42.144;24.794;2023-12-29T12:43:13;22.83;;;12.27;;
5349;SDS011;2697;42.144;24.794;2023-12-29T12:45:43;27.00;;;11.57;;
5349;SDS011;2697;42.144;24.794;2023-12-29T12:50:49;22.20;;;11.00;;
5349;SDS011;2697;42.144;24.794;2023-12-29T12:53:15;20.90;;;10.63;;
5349;SDS011;2697;42.144;24.794;2023-12-29T12:55:47;33.60;;;11.50;;
5349;SDS011;2697;42.144;24.794;2023-12-29T12:58:17;29.17;;;11.37;;
5349;SDS011;2697;42.144;24.794;2023-12-29T13:00:43;29.60;;;13.00;;
5349;SDS011;2697;42.144;24.794;2023-12-29T13:03:10;30.37;;;12.90;;
5349;SDS011;2697;42.144;24.794;2023-12-29T13:05:36;30.50;;;12.83;;
5349;SDS011;2697;42.144;24.794;2023-12-29T13:08:02;31.97;;;15.40;;
5349;SDS011;2697;42.144;24.794;2023-12-29T13:10:29;25.73;;;12.60;;
5349;SDS011;2697;42.144;24.794;2023-12-29T13:12:55;28.50;;;12.50;;
5349;SDS011;2697;42.144;24.794;2023-12-29T13:15:21;22.60;;;11.70;;
5349;SDS011;2697;42.144;24.794;2023-12-29T13:17:51;18.17;;;10.50;;
5349;SDS011;2697;42.144;24.794;2023-12-29T13:20:16;18.23;;;9.90;;
5349;SDS011;2697;42.144;24.794;2023-12-29T13:22:42;20.97;;;8.23;;
5349;SDS011;2697;42.144;24.794;2023-12-29T13:25:08;20.83;;;11.70;;
5349;SDS011;2697;42.144;24.794;2023-12-29T13:27:37;19.07;;;9.13;;
5349;SDS011;2697;42.144;24.794;2023-12-29T13:30:05;27.93;;;10.90;;
5349;SDS011;2697;42.144;24.794;2023-12-29T13:32:31;17.73;;;9.40;;
5349;SDS011;2697;42.144;24.794;2023-12-29T13:37:54;26.37;;;10.60;;
5349;SDS011;2697;42.144;24.794;2023-12-29T13:43:04;27.50;;;12.10;;
5349;SDS011;2697;42.144;24.794;2023-12-29T13:45:33;17.07;;;8.17;;
5349;SDS011;2697;42.144;24.794;2023-12-29T13:48:00;22.93;;;8.33;;
5349;SDS011;2697;42.144;24.794;2023-12-29T13:50:27;13.80;;;7.80;;
5349;SDS011;2697;42.144;24.794;2023-12-29T13:52:52;20.07;;;11.50;;
5349;SDS011;2697;42.144;24.794;2023-12-29T13:55:21;17.77;;;8.77;;
5349;SDS011;2697;42.144;24.794;2023-12-29T13:57:48;23.47;;;8.60;;
5349;SDS011;2697;42.144;24.794;2023-12-29T14:00:17;30.43;;;12.00;;
5349;SDS011;2697;42.144;24.794;2023-12-29T14:02:44;27.97;;;10.70;;
5349;SDS011;2697;42.144;24.794;2023-12-29T14:05:18;35.57;;;15.27;;
5349;SDS011;2697;42.144;24.794;2023-12-29T14:10:35;26.97;;;13.20;;
5349;SDS011;2697;42.144;24.794;2023-12-29T14:15:35;25.93;;;11.60;;
5349;SDS011;2697;42.144;24.794;2023-12-29T14:18:02;23.33;;;12.80;;
5349;SDS011;2697;42.144;24.794;2023-12-29T14:20:40;31.67;;;13.60;;
5349;SDS011;2697;42.144;24.794;2023-12-29T14:23:06;24.73;;;11.17;;
5349;SDS011;2697;42.144;24.794;2023-12-29T14:25:35;21.50;;;12.47;;
5349;SDS011;2697;42.144;24.794;2023-12-29T14:28:02;38.93;;;13.07;;
5349;SDS011;2697;42.144;24.794;2023-12-29T14:30:28;37.67;;;12.93;;
5349;SDS011;2697;42.144;24.794;2023-12-29T14:32:56;29.90;;;12.87;;
5349;SDS011;2697;42.144;24.794;2023-12-29T14:35:23;26.00;;;13.57;;
5349;SDS011;2697;42.144;24.794;2023-12-29T14:37:48;26.27;;;13.27;;
5349;SDS011;2697;42.144;24.794;2023-12-29T14:40:14;27.93;;;10.97;;
5349;SDS011;2697;42.144;24.794;2023-12-29T14:42:39;33.77;;;12.67;;
5349;SDS011;2697;42.144;24.794;2023-12-29T14:45:06;25.07;;;11.83;;
5349;SDS011;2697;42.144;24.794;2023-12-29T14:47:32;30.03;;;12.57;;
5349;SDS011;2697;42.144;24.794;2023-12-29T14:49:58;28.43;;;12.30;;
5349;SDS011;2697;42.144;24.794;2023-12-29T14:52:24;24.83;;;11.30;;
5349;SDS011;2697;42.144;24.794;2023-12-29T14:54:49;31.87;;;12.60;;
5349;SDS011;2697;42.144;24.794;2023-12-29T14:57:15;39.53;;;12.33;;
5349;SDS011;2697;42.144;24.794;2023-12-29T14:59:40;23.27;;;11.90;;
5349;SDS011;2697;42.144;24.794;2023-12-29T15:02:05;21.80;;;10.40;;
5349;SDS011;2697;42.144;24.794;2023-12-29T15:04:33;35.53;;;12.43;;
5349;SDS011;2697;42.144;24.794;2023-12-29T15:06:59;39.60;;;11.90;;
5349;SDS011;2697;42.144;24.794;2023-12-29T15:09:24;36.93;;;12.07;;
5349;SDS011;2697;42.144;24.794;2023-12-29T15:11:50;33.87;;;11.53;;